Time;durP1;ratioP1;P1;durP2;ratioP2;P2;SDS_P1;SDS_P2;PMS_P1;PMS_P2;Temp;Humidity;BMP_temperature;BMP_pressure;BME280_temperature;BME280_humidity;BME280_pressure;Samples;Min_cycle;Max_cycle;Signal;HPM_P1;HPM_P2
2022/09/15 00:10:59;;;;;;;;;;;24.70;99.90;;;;;;4969063;28;19962;-79
2022/09/15 00:13:41;;;;;;;;;;;24.60;99.90;;;;;;4961202;28;20049;-80
2022/09/15 00:51:46;;;;;;;;;;;;;;;;;;;;;
2022/09/15 00:54:24;;;;;;;;;;;;;;;;;;;;;
2022/09/15 01:13:05;;;;;;;;;;;24.30;99.90;;;;;;4912544;29;19918;-80
2022/09/15 01:25:14;;;;;;;;;;;24.20;99.90;;;;;;4923714;29;19918;-80
2022/09/15 01:37:51;;;;;;;;;;;;;;;;;;;;;
2022/09/15 02:36:21;;;;;;;;;;;23.90;99.90;;;;;;4870982;29;19919;-80
2022/09/15 02:57:39;;;;;;;;;;;24.00;99.90;;;;;;4852226;29;19922;-79
2022/09/15 03:31:15;;;;;;;;;;;24.20;99.90;;;;;;4984206;28;19969;-80
2022/09/15 04:01:30;;;;;;;;;;;;;;;;;;;;;
2022/09/15 04:13:19;;;;;;;;;;;24.30;99.90;;;;;;4969426;28;19913;-80
2022/09/15 04:37:47;;;;;;;;;;;;;;;;;;;;;
2022/09/15 04:43:55;;;;;;;;;;;;;;;;;;;;;
2022/09/15 04:59:21;;;;;;;;;;;24.40;99.90;;;;;;4894218;29;20039;-80
2022/09/15 05:05:20;;;;;;;;;;;24.30;99.90;;;;;;4853319;29;19912;-80
2022/09/15 05:16:58;;;;;;;;;;;24.20;99.90;;;;;;4830916;29;19931;-80
2022/09/15 05:19:39;;;;;;;;;;;24.20;99.90;;;;;;4830586;29;19920;-80
2022/09/15 05:28:59;;;;;;;;;;;;;;;;;;;;;
2022/09/15 05:56:54;;;;;;;;;;;24.40;99.90;;;;;;4965607;28;19914;-79
2022/09/15 06:00:08;;;;;;;;;;;;;;;;;;;;;
2022/09/15 06:15:47;;;;;;;;;;;24.50;99.90;;;;;;4856233;29;20112;-79
2022/09/15 06:24:35;;;;;;;;;;;24.60;99.90;;;;;;4869396;29;19926;-80
2022/09/15 06:36:48;;;;;;;;;;;24.80;99.90;;;;;;4866867;29;20065;-80
2022/09/15 06:39:17;;;;;;;;;;;25.00;99.90;;;;;;4868901;29;19912;-80
2022/09/15 06:41:43;;;;;;;;;;;25.00;99.90;;;;;;4934562;29;19966;-79
2022/09/15 06:44:38;;;;;;;;;;;25.10;99.90;;;;;;4954751;29;20248;-79
2022/09/15 06:47:06;;;;;;;;;;;25.20;99.90;;;;;;4937067;28;19910;-79
2022/09/15 06:49:32;;;;;;;;;;;25.20;99.90;;;;;;4984810;28;19910;-79
2022/09/15 06:52:01;;;;;;;;;;;25.30;99.90;;;;;;5029848;28;19940;-80
2022/09/15 06:54:26;;;;;;;;;;;25.30;99.90;;;;;;5045291;28;19908;-79
2022/09/15 06:56:52;;;;;;;;;;;25.50;99.90;;;;;;5028151;28;19908;-81
2022/09/15 06:59:18;;;;;;;;;;;25.60;99.90;;;;;;5047287;28;19908;-80
2022/09/15 07:01:44;;;;;;;;;;;25.70;99.90;;;;;;5046129;28;19913;-80
2022/09/15 07:05:03;;;;;;;;;;;;;;;;;;;;;
2022/09/15 07:08:10;;;;;;;;;;;;;;;;;;;;;
2022/09/15 07:11:00;;;;;;;;;;;;;;;;;;;;;
2022/09/15 07:13:29;;;;;;;;;;;25.70;99.90;;;;;;5048700;28;19943;-81
2022/09/15 07:16:11;;;;;;;;;;;25.80;99.90;;;;;;5031888;28;19912;-80
2022/09/15 07:18:56;;;;;;;;;;;;;;;;;;;;;
2022/09/15 07:21:22;;;;;;;;;;;25.70;99.90;;;;;;5048231;28;19936;-80
2022/09/15 07:27:25;;;;;;;;;;;;;;;;;;;;;
2022/09/15 07:54:51;;;;;;;;;;;27.10;99.90;;;;;;4912407;29;19922;-80
2022/09/15 08:01:25;;;;;;;;;;;27.10;99.90;;;;;;4910370;29;19911;-81
2022/09/15 08:10:26;;;;;;;;;;;27.30;99.90;;;;;;4904139;29;19916;-82
2022/09/15 08:13:07;;;;;;;;;;;;;;;;;;;;;
2022/09/15 08:16:02;;;;;;;;;;;27.50;99.90;;;;;;4917678;29;19942;-80
2022/09/15 08:18:37;;;;;;;;;;;27.50;99.90;;;;;;5005951;28;19940;-81
2022/09/15 08:21:26;;;;;;;;;;;27.40;99.90;;;;;;5025387;28;19909;-80
2022/09/15 08:24:13;;;;;;;;;;;27.30;99.90;;;;;;5041335;28;20012;-80
2022/09/15 08:26:40;;;;;;;;;;;27.20;99.90;;;;;;5043041;28;19916;-80
2022/09/15 08:29:06;;;;;;;;;;;27.00;99.90;;;;;;5048092;28;19905;-80
2022/09/15 08:31:35;;;;;;;;;;;26.80;99.90;;;;;;5017385;28;19909;-78
2022/09/15 08:34:05;;;;;;;;;;;26.40;99.90;;;;;;5063086;28;20359;-82
2022/09/15 08:36:32;;;;;;;;;;;26.10;99.90;;;;;;5035761;28;19937;-80
2022/09/15 08:51:42;;;;;;;;;;;25.30;99.90;;;;;;5049075;28;19976;-80
2022/09/15 08:54:37;;;;;;;;;;;24.20;99.90;;;;;;5060739;28;20003;-84
2022/09/15 08:57:36;;;;;;;183.65;12.90;;;20.40;99.90;;;;;;5017337;28;20406;-82
2022/09/15 09:00:03;;;;;;;12.57;2.97;;;18.70;99.90;;;;;;5047198;28;20164;-73
2022/09/15 09:03:06;;;;;;;8.50;3.42;;;18.00;99.90;;;;;;5032129;28;20022;-72
2022/09/15 09:06:08;;;;;;;12.23;2.67;;;18.00;99.90;;;;;;5041362;28;20029;-72
2022/09/15 09:09:00;;;;;;;8.77;2.97;;;18.10;99.90;;;;;;5032671;28;20014;-72
2022/09/15 09:11:50;;;;;;;5.03;4.10;;;18.40;99.90;;;;;;5027475;28;20480;-72
2022/09/15 09:14:43;;;;;;;7.47;3.33;;;18.90;99.90;;;;;;5035314;28;20076;-72
2022/09/15 09:17:33;;;;;;;8.15;3.22;;;19.00;99.90;;;;;;5037570;28;20029;-72
2022/09/15 09:20:31;;;;;;;11.88;3.38;;;19.20;99.90;;;;;;5035424;28;20429;-72
2022/09/15 09:23:37;;;;;;;5.60;2.13;;;19.70;99.90;;;;;;5035372;28;20032;-72
2022/09/15 09:26:33;;;;;;;9.27;2.95;;;19.90;99.90;;;;;;5016044;28;20033;-72
2022/09/15 09:30:00;;;;;;;5.53;3.42;;;19.80;99.90;;;;;;5015787;28;20029;-72
2022/09/15 09:33:20;;;;;;;11.88;3.42;;;19.70;99.90;;;;;;4916770;29;20364;-72
2022/09/15 09:35:50;;;;;;;10.05;3.42;;;19.80;99.90;;;;;;4910384;29;20119;-72
2022/09/15 09:42:28;;;;;;;12.55;4.43;;;19.80;99.90;;;;;;4881695;29;20123;-72
2022/09/15 09:45:39;;;;;;;6.25;3.38;;;20.20;99.90;;;;;;4897291;29;20048;-72
2022/09/15 09:48:29;;;;;;;8.90;5.22;;;20.40;99.90;;;;;;4877394;29;20036;-72
2022/09/15 09:50:55;;;;;;;7.55;3.15;;;20.50;99.90;;;;;;4973553;28;20019;-72
2022/09/15 09:53:32;;;;;;;10.48;3.20;;;20.70;99.90;;;;;;4973848;28;20039;-72
2022/09/15 09:56:22;;;;;;;10.05;3.78;;;20.90;99.90;;;;;;4972500;28;20105;-73
2022/09/15 09:58:57;;;;;;;8.02;3.88;;;21.00;99.90;;;;;;4971489;28;20042;-72
2022/09/15 10:02:03;;;;;;;14.65;4.63;;;21.20;99.90;;;;;;4961944;28;20049;-72
2022/09/15 10:04:32;;;;;;;14.88;5.00;;;21.40;99.90;;;;;;4972083;28;20031;-72
2022/09/15 10:07:08;;;;;;;15.70;4.82;;;21.60;99.90;;;;;;4973556;28;20055;-73
2022/09/15 10:09:35;;;;;;;12.70;4.15;;;21.70;99.90;;;;;;5004968;28;20521;-72
2022/09/15 10:12:03;;;;;;;18.30;5.20;;;21.90;99.90;;;;;;5033282;28;20037;-73
2022/09/15 10:14:32;;;;;;;15.07;5.53;;;22.10;99.90;;;;;;5034095;28;20218;-72
2022/09/15 10:17:07;;;;;;;11.63;5.53;;;22.20;99.90;;;;;;5034195;28;20470;-72
2022/09/15 10:19:46;;;;;;;12.45;5.75;;;22.30;99.90;;;;;;5033683;28;20391;-73
2022/09/15 10:22:32;;;;;;;15.73;6.25;;;22.50;99.90;;;;;;5033204;28;20036;-71
2022/09/15 10:25:00;;;;;;;10.60;4.78;;;22.50;99.90;;;;;;5033962;28;20021;-70
2022/09/15 10:27:30;;;;;;;17.27;5.72;;;22.60;99.90;;;;;;5034105;28;20021;-70
2022/09/15 10:30:16;;;;;;;16.20;6.63;;;22.60;99.90;;;;;;5016426;28;20025;-70
2022/09/15 10:32:43;;;;;;;25.10;6.75;;;22.90;99.90;;;;;;5033001;28;20034;-70
2022/09/15 10:35:15;;;;;;;15.35;6.30;;;23.00;99.90;;;;;;5034180;28;20036;-71
2022/09/15 10:38:04;;;;;;;23.17;6.15;;;23.20;99.90;;;;;;5031286;28;20087;-71
2022/09/15 10:40:30;;;;;;;22.00;6.88;;;23.50;99.90;;;;;;5042842;28;20033;-75
2022/09/15 10:43:35;;;;;;;15.55;6.38;;;23.90;99.90;;;;;;5033631;28;20033;-74
2022/09/15 10:46:50;;;;;;;29.23;6.60;;;24.20;99.90;;;;;;5026992;28;20020;-73
2022/09/15 10:49:48;;;;;;;18.42;7.25;;;24.50;99.90;;;;;;5024045;28;20037;-74
2022/09/15 10:52:37;;;;;;;38.33;7.78;;;24.80;99.90;;;;;;5037865;28;20040;-75
2022/09/15 10:55:39;;;;;;;32.90;7.70;;;25.00;99.90;;;;;;5036642;28;20104;-73
2022/09/15 10:58:23;;;;;;;20.45;7.63;;;25.10;99.90;;;;;;5043695;28;20033;-74
2022/09/15 11:01:00;;;;;;;20.63;5.82;;;25.40;99.90;;;;;;5031435;28;20028;-73
2022/09/15 11:03:43;;;;;;;38.33;7.43;;;25.50;99.90;;;;;;5027925;28;20033;-74
2022/09/15 11:06:26;;;;;;;23.08;6.03;;;25.70;99.90;;;;;;5032453;28;20024;-74
2022/09/15 11:08:58;;;;;;;19.20;7.55;;;25.70;99.90;;;;;;5025390;28;20084;-74
2022/09/15 11:11:36;;;;;;;;;;;25.80;99.90;;;;;;5037084;28;20049;-74
2022/09/15 11:14:34;;;;;;;29.48;6.97;;;26.00;99.90;;;;;;5010273;28;19984;-74
2022/09/15 11:17:39;;;;;;;17.00;6.03;;;26.20;99.90;;;;;;5002556;28;20603;-74
2022/09/15 11:20:48;;;;;;;35.33;6.18;;;26.40;99.90;;;;;;5020191;28;20102;-74
2022/09/15 11:23:23;;;;;;;17.00;6.65;;;26.50;99.90;;;;;;5047659;28;20048;-74
2022/09/15 11:25:59;;;;;;;21.23;6.65;;;26.80;99.90;;;;;;5024126;28;20119;-74
2022/09/15 11:28:48;;;;;;;23.48;6.13;;;26.90;99.90;;;;;;5028561;28;20093;-74
2022/09/15 11:31:26;;;;;;;14.25;4.18;;;26.90;99.90;;;;;;5020906;28;20380;-74
2022/09/15 11:34:14;;;;;;;16.23;6.00;;;27.10;99.90;;;;;;5030616;28;20443;-74
2022/09/15 11:36:54;;;;;;;33.22;8.77;;;27.20;99.90;;;;;;5018986;28;20120;-74
2022/09/15 11:39:27;;;;;;;29.42;6.47;;;27.20;99.90;;;;;;5016408;28;20053;-74
2022/09/15 11:42:12;;;;;;;20.75;5.68;;;27.20;99.90;;;;;;5045550;28;20037;-75
2022/09/15 11:44:41;;;;;;;22.65;5.55;;;27.30;99.90;;;;;;5031413;28;20564;-74
2022/09/15 11:47:18;;;;;;;22.38;5.60;;;27.40;99.90;;;;;;5031497;28;20029;-74
2022/09/15 11:50:02;;;;;;;22.45;5.22;;;27.60;99.90;;;;;;5029910;28;20024;-74
2022/09/15 11:52:51;;;;;;;18.30;4.63;;;27.60;99.90;;;;;;5006817;28;20037;-73
2022/09/15 11:55:46;;;;;;;27.92;5.90;;;27.70;99.90;;;;;;5026362;28;20109;-73
2022/09/15 11:58:31;;;;;;;20.83;5.68;;;27.60;99.90;;;;;;5032353;28;20032;-73
2022/09/15 12:01:03;;;;;;;24.25;4.82;;;27.60;99.90;;;;;;5025377;28;20095;-73
2022/09/15 12:04:01;;;;;;;25.05;6.03;;;27.70;99.90;;;;;;5025399;28;20033;-73
2022/09/15 12:06:51;;;;;;;25.33;6.22;;;27.50;99.90;;;;;;5018137;28;20061;-73
2022/09/15 12:09:19;;;;;;;35.20;7.30;;;27.50;99.90;;;;;;5026428;28;20170;-73
2022/09/15 12:11:53;;;;;;;31.13;7.57;;;27.40;99.90;;;;;;5029901;28;20097;-73
2022/09/15 12:14:40;;;;;;;23.77;6.65;;;27.40;99.90;;;;;;5023071;28;20439;-73
2022/09/15 12:17:10;;;;;;;24.00;5.43;;;27.40;99.90;;;;;;5031319;28;20026;-73
2022/09/15 12:19:42;;;;;;;22.25;5.90;;;27.40;99.90;;;;;;5030933;28;20029;-74
2022/09/15 12:22:37;;;;;;;30.38;7.18;;;27.50;99.90;;;;;;5029903;28;20477;-74
2022/09/15 12:25:26;;;;;;;21.42;5.00;;;27.40;99.90;;;;;;5028102;28;20048;-74
2022/09/15 12:28:37;;;;;;;26.60;7.57;;;27.30;99.90;;;;;;5035196;28;20018;-74
2022/09/15 12:31:22;;;;;;;21.70;4.97;;;27.40;99.90;;;;;;4918184;29;20023;-74
2022/09/15 12:33:58;;;;;;;26.17;7.05;;;27.40;99.90;;;;;;4933139;29;20112;-74
2022/09/15 12:36:37;;;;;;;19.90;5.20;;;27.30;99.90;;;;;;5002939;28;20092;-74
2022/09/15 12:39:36;;;;;;;27.73;6.47;;;27.30;99.90;;;;;;5033048;28;20131;-74
2022/09/15 12:42:14;;;;;;;29.08;7.95;;;27.20;99.90;;;;;;5034110;28;20395;-74
2022/09/15 12:45:05;;;;;;;30.55;6.75;;;27.20;99.90;;;;;;5032935;28;20981;-75
2022/09/15 12:47:37;;;;;;;21.58;5.68;;;27.30;99.90;;;;;;5035944;28;20782;-74
2022/09/15 12:50:14;;;;;;;22.98;6.55;;;27.30;99.90;;;;;;5034834;28;20034;-75
2022/09/15 12:52:50;;;;;;;32.55;8.05;;;27.40;99.90;;;;;;5036915;28;20056;-74
2022/09/15 12:55:50;;;;;;;30.13;6.97;;;27.40;99.90;;;;;;5015314;28;20525;-73
2022/09/15 12:58:23;;;;;;;56.47;10.10;;;27.50;99.90;;;;;;5025537;28;20065;-74
2022/09/15 13:00:49;;;;;;;26.35;7.18;;;27.60;99.90;;;;;;5027251;28;20467;-75
2022/09/15 13:03:38;;;;;;;85.97;11.23;;;27.60;99.90;;;;;;5036702;28;20075;-74
2022/09/15 13:06:33;;;;;;;44.90;7.43;;;27.60;99.90;;;;;;5031890;28;20037;-74
2022/09/15 13:09:04;;;;;;;39.53;8.98;;;27.60;99.90;;;;;;5015380;28;20033;-74
2022/09/15 13:11:35;;;;;;;;;;;27.50;99.90;;;;;;5020492;28;20044;-77
2022/09/15 13:14:06;;;;;;;35.45;7.82;;;27.50;99.90;;;;;;5034043;28;19914;-74
2022/09/15 13:16:47;;;;;;;;;;;27.60;99.90;;;;;;5035715;28;20057;-73
2022/09/15 13:19:29;;;;;;;38.17;8.80;;;27.60;99.90;;;;;;5012979;28;19917;-74
2022/09/15 13:22:10;;;;;;;45.55;7.65;;;27.60;99.90;;;;;;5031236;28;20029;-74
2022/09/15 13:25:00;;;;;;;36.20;9.23;;;27.70;99.90;;;;;;5032095;28;20060;-74
2022/09/15 13:27:49;;;;;;;44.53;8.93;;;27.70;99.90;;;;;;5032725;28;20668;-74
2022/09/15 13:30:34;;;;;;;24.35;6.85;;;27.70;99.90;;;;;;5033617;28;20017;-75
2022/09/15 13:33:03;;;;;;;30.73;8.40;;;27.60;99.90;;;;;;5033333;28;20021;-74
2022/09/15 13:35:53;;;;;;;28.23;7.97;;;27.60;99.90;;;;;;5032866;28;20386;-74
2022/09/15 13:38:39;;;;;;;34.67;9.65;;;27.70;99.90;;;;;;5021433;28;20037;-74
2022/09/15 13:41:26;;;;;;;31.70;8.77;;;27.90;99.90;;;;;;5033398;28;20044;-75
2022/09/15 13:44:13;;;;;;;34.95;8.15;;;27.80;99.90;;;;;;5033172;28;20087;-74
2022/09/15 13:47:07;;;;;;;32.42;8.00;;;27.80;99.90;;;;;;5033218;28;20048;-73
2022/09/15 13:49:45;;;;;;;36.80;8.30;;;27.80;99.90;;;;;;5028541;28;20527;-73
2022/09/15 13:52:26;;;;;;;49.35;9.70;;;27.90;99.90;;;;;;5031915;28;20029;-74
2022/09/15 13:55:26;;;;;;;48.10;10.00;;;28.00;99.90;;;;;;5030270;28;20026;-73
2022/09/15 13:58:01;;;;;;;32.88;8.68;;;28.00;99.90;;;;;;5029958;28;20045;-74
2022/09/15 14:00:44;;;;;;;34.28;9.10;;;28.10;99.90;;;;;;5032923;28;20103;-74
2022/09/15 14:03:15;;;;;;;35.65;8.68;;;28.20;99.90;;;;;;5032303;28;20069;-74
2022/09/15 14:05:47;;;;;;;35.90;8.45;;;28.20;99.90;;;;;;5033713;28;20059;-74
2022/09/15 14:11:12;;;;;;;46.85;11.13;;;28.20;99.90;;;;;;5033268;28;20584;-76
2022/09/15 14:13:54;;;;;;;53.75;12.10;;;28.10;99.90;;;;;;5033443;28;20400;-73
2022/09/15 14:16:26;;;;;;;43.95;10.57;;;28.00;99.90;;;;;;5031478;28;20383;-74
2022/09/15 14:18:55;;;;;;;36.10;9.57;;;28.00;99.90;;;;;;5031614;28;20025;-74
2022/09/15 14:22:16;;;;;;;41.00;9.73;;;27.80;99.90;;;;;;5032842;28;20502;-74
2022/09/15 14:24:52;;;;;;;41.08;10.73;;;27.90;99.90;;;;;;4951936;29;20073;-75
2022/09/15 14:28:16;;;;;;;81.03;12.65;;;27.90;99.90;;;;;;5013513;28;20033;-73
2022/09/15 14:30:47;;;;;;;36.53;8.77;;;27.90;99.90;;;;;;4962847;28;20022;-74
2022/09/15 14:33:58;;;;;;;50.97;10.25;;;28.00;99.90;;;;;;4999295;28;20531;-74
2022/09/15 14:37:11;;;;;;;;;;;28.00;99.90;;;;;;5015228;28;20538;-74
2022/09/15 14:39:21;;;;;;;51.22;12.30;;;28.10;99.90;;;;;;5011420;28;19996;-74
2022/09/15 14:41:55;;;;;;;44.70;12.25;;;28.20;99.90;;;;;;5032220;28;20037;-73
2022/09/15 14:45:09;;;;;;;50.45;10.93;;;28.30;99.90;;;;;;5030031;28;20034;-77
2022/09/15 14:47:41;;;;;;;34.40;9.90;;;28.20;99.90;;;;;;4969351;28;20031;-73
2022/09/15 14:50:16;;;;;;;54.17;11.75;;;28.00;99.90;;;;;;5026461;28;20038;-73
2022/09/15 14:53:04;;;;;;;50.15;12.02;;;27.80;99.90;;;;;;5027477;28;20040;-74
2022/09/15 14:55:49;;;;;;;51.22;11.63;;;27.70;99.90;;;;;;5034145;28;20033;-73
2022/09/15 14:58:26;;;;;;;43.60;10.60;;;27.70;99.90;;;;;;5038982;28;20029;-73
2022/09/15 15:01:31;;;;;;;52.05;11.20;;;27.60;99.90;;;;;;5031270;28;20032;-73
2022/09/15 15:04:39;;;;;;;49.58;10.63;;;27.50;99.90;;;;;;5010339;28;20029;-74
2022/09/15 15:08:24;;;;;;;;;;;;;;;;;;;;;
2022/09/15 15:10:41;;;;;;;36.22;10.18;;;27.60;99.90;;;;;;4988424;28;20156;-74
2022/09/15 15:13:14;;;;;;;47.20;12.98;;;27.20;99.90;;;;;;5029448;28;20025;-74
2022/09/15 15:15:52;;;;;;;47.38;9.82;;;27.10;99.90;;;;;;5031261;28;20499;-73
2022/09/15 15:18:37;;;;;;;52.28;10.43;;;26.90;99.90;;;;;;5025528;28;20099;-73
2022/09/15 15:21:05;;;;;;;41.63;10.50;;;26.90;99.90;;;;;;5022474;28;20033;-73
2022/09/15 15:23:31;;;;;;;38.28;10.35;;;26.90;99.90;;;;;;5024826;28;20071;-75
2022/09/15 15:26:44;;;;;;;;;;;;;;;;;;;;;
2022/09/15 15:29:53;;;;;;;41.50;10.65;;;26.80;99.90;;;;;;5009290;28;20033;-74
2022/09/15 15:33:10;;;;;;;42.78;10.95;;;26.80;99.90;;;;;;5011464;28;20037;-76
2022/09/15 15:35:29;;;;;;;46.22;9.85;;;26.80;99.90;;;;;;5028325;28;20080;-76
2022/09/15 15:38:42;;;;;;;46.03;9.70;;;26.70;99.90;;;;;;5031817;28;20037;-76
2022/09/15 15:41:19;;;;;;;49.67;10.63;;;26.60;99.90;;;;;;5006534;28;20026;-76
2022/09/15 15:44:25;;;;;;;41.78;10.20;;;26.70;99.90;;;;;;5021895;28;20029;-76
2022/09/15 15:47:23;;;;;;;42.65;10.38;;;26.70;99.90;;;;;;5022288;28;20045;-77
2022/09/15 15:49:53;;;;;;;36.22;10.48;;;26.70;99.90;;;;;;5025283;28;20228;-77
2022/09/15 15:52:20;;;;;;;45.67;11.48;;;26.70;99.90;;;;;;5022888;28;20034;-77
2022/09/15 15:54:46;;;;;;;35.20;9.00;;;26.70;99.90;;;;;;5030024;28;20490;-76
2022/09/15 15:57:24;;;;;;;52.60;10.18;;;26.70;99.90;;;;;;5029192;28;20083;-76
2022/09/15 15:59:57;;;;;;;41.00;9.65;;;26.80;99.90;;;;;;5026920;28;20029;-77
2022/09/15 16:02:30;;;;;;;51.75;10.70;;;26.80;99.90;;;;;;5027213;28;20060;-76
2022/09/15 16:04:56;;;;;;;43.38;10.05;;;26.80;99.90;;;;;;5032122;28;20091;-77
2022/09/15 16:07:24;;;;;;;39.70;9.75;;;26.70;99.90;;;;;;5029476;28;20025;-75
2022/09/15 16:09:50;;;;;;;38.80;10.00;;;26.70;99.90;;;;;;5028281;28;20022;-77
2022/09/15 16:12:16;;;;;;;43.50;10.65;;;26.60;99.90;;;;;;5008202;28;20034;-77
2022/09/15 16:14:42;;;;;;;41.60;9.38;;;26.60;99.90;;;;;;5029792;28;20041;-78
2022/09/15 16:17:08;;;;;;;45.42;10.00;;;26.50;99.90;;;;;;5013043;28;20025;-77
2022/09/15 16:19:33;;;;;;;46.80;11.98;;;26.50;99.90;;;;;;5039293;28;20036;-77
2022/09/15 16:22:01;;;;;;;45.35;10.55;;;26.40;99.90;;;;;;5034715;28;20032;-77
2022/09/15 16:24:27;;;;;;;43.92;10.75;;;26.40;99.90;;;;;;5032394;28;20036;-77
2022/09/15 16:27:17;;;;;;;40.92;10.73;;;26.30;99.90;;;;;;5031212;28;20068;-76
2022/09/15 16:29:44;;;;;;;50.05;10.57;;;26.30;99.90;;;;;;5032783;28;20021;-76
2022/09/15 16:32:20;;;;;;;53.30;10.55;;;26.30;99.90;;;;;;5032620;28;20037;-76
2022/09/15 16:34:50;;;;;;;46.42;11.10;;;26.20;99.90;;;;;;5036042;28;20068;-76
2022/09/15 16:37:16;;;;;;;39.88;11.27;;;26.10;99.90;;;;;;5018183;28;20041;-76
2022/09/15 16:39:45;;;;;;;39.70;11.05;;;26.10;99.90;;;;;;5019901;28;20022;-76
2022/09/15 16:42:10;;;;;;;48.53;9.45;;;26.10;99.90;;;;;;5054360;28;20044;-76
2022/09/15 16:44:38;;;;;;;48.45;11.63;;;26.00;99.90;;;;;;5039818;28;20025;-76
2022/09/15 16:47:05;;;;;;;42.25;11.55;;;26.10;99.90;;;;;;5032435;28;20033;-76
2022/09/15 16:49:31;;;;;;;55.10;10.43;;;26.10;99.90;;;;;;5036490;28;20029;-76
2022/09/15 16:51:57;;;;;;;39.45;11.45;;;26.30;99.90;;;;;;5041863;28;20403;-76
2022/09/15 16:54:23;;;;;;;53.42;11.43;;;26.30;99.90;;;;;;5036351;28;20029;-76
2022/09/15 16:56:50;;;;;;;57.95;13.27;;;26.30;99.90;;;;;;5038005;28;20069;-76
2022/09/15 16:59:16;;;;;;;53.28;12.18;;;26.30;99.90;;;;;;5040264;28;20067;-77
2022/09/15 17:01:42;;;;;;;59.05;12.07;;;26.30;99.90;;;;;;5036086;28;20034;-76
2022/09/15 17:04:14;;;;;;;52.33;12.85;;;26.20;99.90;;;;;;5029101;28;20029;-76
2022/09/15 17:06:40;;;;;;;50.78;12.27;;;26.20;99.90;;;;;;5033049;28;20116;-76
2022/09/15 17:09:06;;;;;;;56.28;13.88;;;26.10;99.90;;;;;;5036290;28;20025;-76
2022/09/15 17:11:32;;;;;;;50.90;13.85;;;26.00;99.90;;;;;;5040839;28;20072;-77
2022/09/15 17:13:58;;;;;;;42.45;10.88;;;25.90;99.90;;;;;;5043670;28;20518;-76
2022/09/15 17:16:23;;;;;;;38.55;10.80;;;25.80;99.90;;;;;;5043344;28;20033;-76
2022/09/15 17:18:49;;;;;;;60.58;13.02;;;25.70;99.90;;;;;;5036024;28;20116;-76
2022/09/15 17:21:16;;;;;;;38.90;10.60;;;25.60;99.90;;;;;;5033189;28;20620;-76
2022/09/15 17:23:44;;;;;;;57.80;13.10;;;25.70;99.90;;;;;;5043578;28;20120;-76
2022/09/15 17:26:19;;;;;;;48.17;11.40;;;25.50;99.90;;;;;;5055540;28;20387;-76
2022/09/15 17:28:45;;;;;;;40.40;11.48;;;25.40;99.90;;;;;;5043799;28;20022;-77
2022/09/15 17:31:14;;;;;;;54.80;14.70;;;25.30;99.90;;;;;;5045128;28;20020;-76
2022/09/15 17:33:40;;;;;;;48.40;10.50;;;25.20;99.90;;;;;;5023278;28;20075;-77
2022/09/15 17:36:06;;;;;;;54.75;11.90;;;25.10;99.90;;;;;;5021612;28;20351;-76
2022/09/15 17:38:32;;;;;;;39.65;10.10;;;25.00;99.90;;;;;;5018173;28;20025;-76
2022/09/15 17:40:58;;;;;;;61.45;12.90;;;24.90;99.90;;;;;;5020231;28;20060;-76
2022/09/15 17:43:26;;;;;;;51.70;11.70;;;24.90;99.90;;;;;;5021224;28;20025;-77
2022/09/15 17:45:52;;;;;;;44.42;12.50;;;24.90;99.90;;;;;;5039125;28;20057;-76
2022/09/15 17:48:18;;;;;;;58.05;12.30;;;24.80;99.90;;;;;;5041463;28;20021;-77
2022/09/15 17:50:45;;;;;;;51.72;11.00;;;24.80;99.90;;;;;;5021237;28;20025;-78
2022/09/15 17:53:13;;;;;;;59.53;11.38;;;24.80;99.90;;;;;;5040898;28;20384;-77
2022/09/15 17:55:39;;;;;;;32.88;10.57;;;24.80;99.90;;;;;;5020832;28;20347;-77
2022/09/15 17:58:05;;;;;;;57.63;12.70;;;24.80;99.90;;;;;;5040004;28;20032;-81
2022/09/15 18:00:40;;;;;;;40.70;14.20;;;24.70;99.90;;;;;;5051361;28;20056;-77
2022/09/15 18:03:23;;;;;;;39.58;12.02;;;24.70;99.90;;;;;;5041701;28;20040;-77
2022/09/15 18:05:50;;;;;;;56.15;13.38;;;24.60;99.90;;;;;;5044740;28;20021;-77
2022/09/15 18:08:16;;;;;;;41.08;11.77;;;24.60;99.90;;;;;;5047982;28;20022;-77
2022/09/15 18:10:43;;;;;;;45.33;14.38;;;24.60;99.90;;;;;;5038263;28;20048;-77
2022/09/15 18:13:14;;;;;;;38.75;11.75;;;24.60;99.90;;;;;;5039285;28;20075;-77
2022/09/15 18:15:41;;;;;;;;;;;24.60;99.90;;;;;;5022286;28;20394;-78
2022/09/15 18:18:15;;;;;;;40.95;11.05;;;24.50;99.90;;;;;;5018007;28;19915;-79
2022/09/15 18:20:42;;;;;;;43.00;12.30;;;24.50;99.90;;;;;;5022045;28;20060;-77
2022/09/15 18:23:13;;;;;;;37.47;10.63;;;24.60;99.90;;;;;;5046563;28;20034;-77
2022/09/15 18:25:39;;;;;;;54.45;10.57;;;24.60;99.90;;;;;;5039140;28;20116;-77
2022/09/15 18:28:05;;;;;;;47.10;10.73;;;24.60;99.90;;;;;;5023378;28;20029;-77
2022/09/15 18:30:39;;;;;;;35.50;10.60;;;24.50;99.90;;;;;;5023630;28;20025;-77
2022/09/15 18:33:06;;;;;;;32.33;9.80;;;24.50;99.90;;;;;;5018453;28;20036;-78
2022/09/15 18:35:33;;;;;;;36.00;9.75;;;24.50;99.90;;;;;;5041309;28;20502;-77
2022/09/15 18:37:59;;;;;;;46.13;10.75;;;24.50;99.90;;;;;;5040658;28;20021;-77
2022/09/15 18:40:26;;;;;;;48.88;10.35;;;24.40;99.90;;;;;;5043032;28;20033;-80
2022/09/15 18:42:53;;;;;;;38.90;8.40;;;24.50;99.90;;;;;;5025188;28;20364;-77
2022/09/15 18:45:19;;;;;;;43.72;11.18;;;24.40;99.90;;;;;;5043941;28;20081;-82
2022/09/15 18:47:50;;;;;;;34.17;9.70;;;24.40;99.90;;;;;;5046972;28;20021;-77
2022/09/15 18:50:19;;;;;;;46.35;11.80;;;24.30;99.90;;;;;;5024188;28;20033;-77
2022/09/15 18:52:45;;;;;;;43.92;11.25;;;24.30;99.90;;;;;;5024618;28;20040;-78
2022/09/15 18:55:14;;;;;;;49.10;9.60;;;24.30;99.90;;;;;;5042444;28;20533;-76
2022/09/15 18:57:41;;;;;;;46.20;11.13;;;24.20;99.90;;;;;;5042110;28;20025;-77
2022/09/15 19:00:13;;;;;;;44.70;11.02;;;24.20;99.90;;;;;;5033503;28;20423;-76
2022/09/15 19:02:39;;;;;;;46.25;14.02;;;24.30;99.90;;;;;;5012944;28;20091;-75
2022/09/15 19:05:06;;;;;;;53.78;20.92;;;24.40;99.90;;;;;;5032885;28;20025;-75
2022/09/15 19:07:33;;;;;;;59.20;20.15;;;24.30;99.90;;;;;;5034581;28;20030;-76
2022/09/15 19:09:59;;;;;;;42.67;13.73;;;24.30;99.90;;;;;;5034173;28;20025;-76
2022/09/15 19:12:25;;;;;;;47.63;10.73;;;24.40;99.90;;;;;;5027185;28;20049;-76
2022/09/15 19:14:51;;;;;;;36.22;12.35;;;24.40;99.90;;;;;;5037595;28;20101;-76
2022/09/15 19:17:17;;;;;;;33.50;9.95;;;24.30;99.90;;;;;;5032310;28;20399;-76
2022/09/15 19:19:45;;;;;;;41.33;10.98;;;24.30;99.90;;;;;;5032291;28;20125;-75
2022/09/15 19:22:11;;;;;;;36.72;9.85;;;24.30;99.90;;;;;;5036772;28;20024;-76
2022/09/15 19:24:37;;;;;;;37.47;10.63;;;24.30;99.90;;;;;;5034111;28;20029;-76
2022/09/15 19:27:05;;;;;;;36.83;8.32;;;24.40;99.90;;;;;;5036415;28;20040;-76
2022/09/15 19:29:33;;;;;;;39.90;9.48;;;24.40;99.90;;;;;;5018155;28;20026;-76
2022/09/15 19:32:11;;;;;;;49.55;10.98;;;24.30;99.90;;;;;;5051255;28;20021;-76
2022/09/15 19:34:39;;;;;;;44.72;9.15;;;24.20;99.90;;;;;;5042618;28;20021;-76
2022/09/15 19:37:06;;;;;;;40.40;9.02;;;24.20;99.90;;;;;;5034162;28;20018;-75
2022/09/15 19:40:41;;;;;;;40.70;8.10;;;24.30;99.90;;;;;;5033617;28;20025;-80
2022/09/15 19:43:27;;;;;;;;;;;;;;;;;;;;;
2022/09/15 19:46:03;;;;;;;37.08;11.07;;;24.10;99.90;;;;;;5046206;28;20033;-81
2022/09/15 19:48:55;;;;;;;39.92;10.00;;;24.30;99.90;;;;;;5030207;28;20587;-82
2022/09/15 19:54:17;;;;;;;48.92;11.35;;;24.20;99.90;;;;;;5048340;28;19912;-81
2022/09/15 19:56:46;;;;;;;42.35;9.65;;;24.20;99.90;;;;;;5046402;28;20036;-81
2022/09/15 19:59:15;;;;;;;41.58;9.75;;;24.20;99.90;;;;;;5047199;28;20026;-80
2022/09/15 20:01:41;;;;;;;39.67;11.07;;;24.00;99.90;;;;;;5029372;28;20036;-81
2022/09/15 20:04:29;;;;;;;43.20;9.85;;;24.00;99.90;;;;;;5047821;28;20028;-80
2022/09/15 20:07:11;;;;;;;41.40;10.90;;;24.00;99.90;;;;;;5040074;28;20079;-80
2022/09/15 20:09:37;;;;;;;52.25;11.15;;;24.10;99.90;;;;;;5029767;28;20379;-80
2022/09/15 20:12:19;;;;;;;53.55;10.63;;;24.10;99.90;;;;;;5045886;28;20052;-80
2022/09/15 20:17:47;;;;;;;54.10;11.80;;;24.10;99.90;;;;;;5018784;28;20053;-80
2022/09/15 20:20:13;;;;;;;43.80;10.10;;;24.10;99.90;;;;;;5024045;28;20026;-79
2022/09/15 20:22:42;;;;;;;44.83;11.20;;;24.00;99.90;;;;;;5022306;28;20028;-80
2022/09/15 20:25:08;;;;;;;56.72;11.52;;;24.10;99.90;;;;;;5005795;28;20026;-79
2022/09/15 20:27:34;;;;;;;51.88;10.88;;;24.00;99.90;;;;;;5042145;28;20025;-80
2022/09/15 20:29:59;;;;;;;50.72;11.02;;;24.10;99.90;;;;;;5043820;28;20026;-79
2022/09/15 20:32:28;;;;;;;39.80;11.18;;;23.90;99.90;;;;;;5044066;28;20048;-79
2022/09/15 20:35:00;;;;;;;48.10;10.80;;;23.90;99.90;;;;;;5044253;28;20026;-79
2022/09/15 20:37:26;;;;;;;53.88;11.95;;;23.90;99.90;;;;;;5043763;28;20102;-79
2022/09/15 20:39:52;;;;;;;46.80;11.65;;;23.90;99.90;;;;;;5043060;28;20032;-81
2022/09/15 20:42:18;;;;;;;45.88;12.00;;;23.90;99.90;;;;;;5037166;28;20069;-79
2022/09/15 20:44:47;;;;;;;50.25;11.85;;;23.90;99.90;;;;;;5042408;28;20025;-79